createdAt,value
2022-11-17T00:01:30.806Z,11.90
2022-11-17T00:04:01.809Z,11.90
2022-11-17T00:06:32.610Z,11.90
2022-11-17T00:09:06.476Z,11.90
2022-11-17T00:11:52.227Z,12.00
2022-11-17T00:14:39.533Z,12.00
2022-11-17T00:17:12.974Z,12.00
2022-11-17T00:19:56.180Z,12.00
2022-11-17T00:22:27.448Z,12.10
2022-11-17T00:25:08.737Z,12.00
2022-11-17T00:27:42.095Z,12.00
2022-11-17T00:30:34.291Z,12.00
2022-11-17T00:33:18.434Z,12.00
2022-11-17T00:35:54.657Z,12.00
2022-11-17T00:38:25.445Z,12.00
2022-11-17T00:40:59.428Z,11.90
2022-11-17T00:43:33.045Z,11.50
2022-11-17T00:46:04.489Z,11.70
2022-11-17T00:48:35.266Z,11.70
2022-11-17T00:51:07.210Z,11.70
2022-11-17T00:53:38.110Z,11.70
2022-11-17T00:56:11.525Z,11.80
2022-11-17T00:58:45.962Z,11.60
2022-11-17T01:01:17.207Z,11.60
2022-11-17T01:03:48.023Z,11.70
2022-11-17T01:06:23.115Z,11.70
2022-11-17T01:08:53.907Z,11.60
2022-11-17T01:11:28.279Z,11.60
2022-11-17T01:14:04.882Z,11.60
2022-11-17T01:16:36.157Z,11.60
2022-11-17T01:19:07.270Z,12.00
2022-11-17T01:21:38.074Z,11.50
2022-11-17T01:24:09.527Z,11.70
2022-11-17T01:26:42.613Z,11.60
2022-11-17T01:29:18.968Z,11.60
2022-11-17T01:31:54.065Z,11.70
2022-11-17T01:34:26.025Z,11.70
2022-11-17T01:37:09.359Z,11.70
2022-11-17T01:39:42.714Z,11.70
2022-11-17T01:42:17.537Z,11.60
2022-11-17T01:45:04.327Z,11.50
2022-11-17T01:47:42.424Z,11.40
2022-11-17T01:50:22.611Z,11.30
2022-11-17T01:52:56.455Z,11.30
2022-11-17T01:55:30.449Z,11.30
2022-11-17T01:58:06.362Z,11.30
2022-11-17T02:00:42.062Z,11.30
2022-11-17T02:03:13.054Z,11.30
2022-11-17T02:05:51.174Z,11.30
2022-11-17T02:08:25.035Z,11.30
2022-11-17T02:10:56.716Z,11.30
2022-11-17T02:13:29.002Z,11.20
2022-11-17T02:16:02.338Z,11.30
2022-11-17T02:18:33.924Z,11.10
2022-11-17T02:21:25.449Z,11.10
2022-11-17T02:24:23.486Z,11.00
2022-11-17T02:27:27.432Z,11.20
2022-11-17T02:30:08.335Z,11.00
2022-11-17T02:32:48.915Z,11.00
2022-11-17T02:35:27.011Z,11.00
2022-11-17T02:38:08.175Z,11.00
2022-11-17T02:40:46.563Z,11.00
2022-11-17T02:43:35.158Z,11.00
2022-11-17T02:46:11.800Z,11.00
2022-11-17T02:48:49.786Z,11.10
2022-11-17T02:51:25.013Z,11.20
2022-11-17T02:54:00.171Z,10.90
2022-11-17T02:56:33.280Z,11.00
2022-11-17T02:59:07.828Z,11.00
2022-11-17T03:01:58.039Z,11.00
2022-11-17T03:04:43.142Z,11.00
2022-11-17T03:07:27.117Z,11.00
2022-11-17T03:10:13.281Z,11.00
2022-11-17T03:12:52.715Z,11.00
2022-11-17T03:15:30.536Z,10.90
2022-11-17T03:18:10.280Z,10.90
2022-11-17T03:20:51.655Z,11.00
2022-11-17T03:23:26.554Z,11.00
2022-11-17T03:25:59.796Z,10.90
2022-11-17T03:28:33.264Z,10.90
2022-11-17T03:31:09.346Z,10.80
2022-11-17T03:33:44.496Z,10.80
2022-11-17T03:36:18.533Z,10.80
2022-11-17T03:38:55.955Z,10.90
2022-11-17T03:41:28.499Z,10.90
2022-11-17T03:44:00.432Z,10.90
2022-11-17T03:46:33.014Z,10.90
2022-11-17T03:49:12.965Z,10.90
2022-11-17T03:51:50.742Z,10.90
2022-11-17T03:54:21.742Z,10.80
2022-11-17T03:56:58.437Z,10.80
2022-11-17T03:59:34.128Z,10.90
2022-11-17T04:02:05.312Z,10.90
2022-11-17T04:04:50.958Z,10.90
2022-11-17T04:07:21.737Z,10.90
2022-11-17T04:09:55.324Z,10.80
2022-11-17T04:12:38.671Z,10.90
2022-11-17T04:15:23.044Z,10.80
2022-11-17T04:17:56.926Z,10.60
2022-11-17T04:20:37.467Z,10.60
2022-11-17T04:23:11.634Z,10.60
2022-11-17T04:25:57.080Z,10.60
2022-11-17T04:28:41.612Z,10.70
2022-11-17T04:31:16.061Z,10.80
2022-11-17T04:33:50.427Z,10.80
2022-11-17T04:36:25.517Z,10.80
2022-11-17T04:39:00.541Z,11.00
2022-11-17T04:41:45.955Z,10.70
2022-11-17T04:44:19.082Z,10.80
2022-11-17T04:46:49.873Z,10.80
2022-11-17T04:49:22.039Z,10.90
2022-11-17T04:51:56.610Z,10.90
2022-11-17T04:54:39.084Z,10.90
2022-11-17T04:57:10.089Z,11.30
2022-11-17T04:59:40.862Z,11.00
2022-11-17T05:02:11.766Z,11.00
2022-11-17T05:04:55.232Z,10.90
2022-11-17T05:07:28.694Z,10.90
2022-11-17T05:10:02.033Z,10.90
2022-11-17T05:12:47.355Z,11.00
2022-11-17T05:15:38.296Z,11.40
2022-11-17T05:18:06.762Z,10.90
2022-11-17T05:20:37.501Z,10.90
2022-11-17T05:23:23.404Z,10.90
2022-11-17T05:25:56.716Z,10.80
2022-11-17T05:28:27.492Z,10.80
2022-11-17T05:30:58.282Z,10.80
2022-11-17T05:33:32.356Z,10.70
2022-11-17T05:36:08.000Z,10.70
2022-11-17T05:38:43.005Z,10.70
2022-11-17T05:41:14.936Z,10.80
2022-11-17T05:43:48.348Z,10.80
2022-11-17T05:46:20.618Z,10.90
2022-11-17T05:48:52.915Z,10.90
2022-11-17T05:51:25.423Z,10.90
2022-11-17T05:54:00.006Z,10.90
2022-11-17T05:56:38.251Z,11.00
2022-11-17T05:59:23.404Z,11.10
2022-11-17T06:02:03.190Z,11.10
2022-11-17T06:04:34.375Z,11.10
2022-11-17T06:07:05.744Z,11.20
2022-11-17T06:09:42.869Z,11.20
2022-11-17T06:12:18.156Z,11.30
2022-11-17T06:14:48.995Z,11.20
2022-11-17T06:17:26.349Z,11.10
2022-11-17T06:20:00.056Z,11.10
2022-11-17T06:22:34.102Z,11.10
2022-11-17T06:25:10.663Z,11.00
2022-11-17T06:27:44.160Z,10.90
2022-11-17T06:30:15.441Z,10.90
2022-11-17T06:32:47.613Z,11.00
2022-11-17T06:35:29.584Z,11.00
2022-11-17T06:38:01.582Z,11.00
2022-11-17T06:40:35.321Z,11.00
2022-11-17T06:43:16.578Z,11.00
2022-11-17T06:45:48.805Z,11.40
2022-11-17T06:48:26.894Z,11.10
2022-11-17T06:50:58.813Z,11.10
2022-11-17T06:53:31.459Z,11.10
2022-11-17T06:56:09.686Z,11.10
2022-11-17T06:58:42.598Z,11.10
2022-11-17T07:01:15.769Z,11.10
2022-11-17T07:03:46.578Z,11.10
2022-11-17T07:06:19.409Z,11.20
2022-11-17T07:08:50.849Z,11.20
2022-11-17T07:11:24.462Z,11.30
2022-11-17T07:13:55.196Z,11.30
2022-11-17T07:16:26.154Z,11.20
2022-11-17T07:18:59.478Z,11.20
2022-11-17T07:21:35.492Z,11.20
2022-11-17T07:24:07.683Z,11.20
2022-11-17T07:26:41.025Z,11.20
2022-11-17T07:29:14.791Z,11.20
2022-11-17T07:31:46.044Z,11.20
2022-11-17T07:34:16.830Z,11.30
2022-11-17T07:36:47.802Z,11.30
2022-11-17T07:39:21.636Z,11.20
2022-11-17T07:41:57.284Z,11.30
2022-11-17T07:44:28.083Z,11.30
2022-11-17T07:46:58.931Z,11.20
2022-11-17T07:49:30.422Z,11.30
2022-11-17T07:52:03.201Z,11.30
2022-11-17T07:54:33.983Z,11.20
2022-11-17T07:57:08.868Z,11.20
2022-11-17T07:59:39.666Z,11.30
2022-11-17T08:02:12.618Z,11.40
2022-11-17T08:04:43.563Z,11.30
2022-11-17T08:07:17.330Z,11.40
2022-11-17T08:09:48.111Z,11.30
2022-11-17T08:12:23.962Z,11.40
2022-11-17T08:14:54.793Z,11.40
2022-11-17T08:17:25.934Z,11.30
2022-11-17T08:19:56.741Z,11.30
2022-11-17T08:22:27.517Z,11.30
2022-11-17T08:24:58.272Z,11.40
2022-11-17T08:27:31.698Z,11.40
2022-11-17T08:30:02.881Z,11.40
2022-11-17T08:32:33.620Z,11.50
2022-11-17T08:35:06.983Z,11.40
2022-11-17T08:37:37.715Z,11.40
2022-11-17T08:40:10.211Z,11.50
2022-11-17T08:42:44.345Z,11.50
2022-11-17T08:45:16.401Z,11.40
2022-11-17T08:47:47.182Z,11.40
2022-11-17T08:50:18.360Z,11.40
2022-11-17T08:52:49.322Z,11.40
2022-11-17T08:55:20.286Z,11.40
2022-11-17T08:57:53.697Z,11.40
2022-11-17T09:00:24.535Z,11.40
2022-11-17T09:02:55.897Z,11.40
2022-11-17T09:05:28.773Z,11.80
2022-11-17T09:08:22.375Z,11.80
2022-11-17T09:10:52.363Z,11.60
2022-11-17T09:13:25.767Z,11.60
2022-11-17T09:15:58.019Z,11.60
2022-11-17T09:18:28.730Z,11.60
2022-11-17T09:21:02.882Z,11.60
2022-11-17T09:23:34.392Z,11.60
2022-11-17T09:26:09.377Z,11.60
2022-11-17T09:28:44.136Z,11.60
2022-11-17T09:31:17.658Z,11.60
2022-11-17T09:33:49.175Z,11.60
2022-11-17T09:36:20.281Z,11.60
2022-11-17T09:38:51.116Z,11.60
2022-11-17T09:41:28.194Z,11.60
2022-11-17T09:44:24.106Z,11.70
2022-11-17T09:47:04.035Z,11.70
2022-11-17T09:49:45.412Z,11.80
2022-11-17T09:52:21.398Z,11.90
2022-11-17T09:54:58.652Z,11.90
2022-11-17T09:57:35.938Z,12.00
2022-11-17T10:00:16.903Z,12.20
2022-11-17T10:02:48.663Z,12.20
2022-11-17T10:05:27.680Z,12.10
2022-11-17T10:08:03.559Z,12.10
2022-11-17T10:10:40.031Z,12.10
2022-11-17T10:13:24.911Z,12.20
2022-11-17T10:16:03.544Z,12.10
2022-11-17T10:18:38.644Z,12.10
2022-11-17T10:21:11.077Z,12.20
2022-11-17T10:23:46.986Z,12.30
2022-11-17T10:26:19.037Z,12.40
2022-11-17T10:28:50.895Z,12.40
2022-11-17T10:31:24.267Z,12.40
2022-11-17T10:33:55.108Z,12.40
2022-11-17T10:36:28.965Z,12.50
2022-11-17T10:39:00.947Z,12.60
2022-11-17T10:41:38.831Z,12.50
2022-11-17T10:44:20.127Z,12.50
2022-11-17T10:47:03.110Z,12.90
2022-11-17T10:49:37.957Z,12.60
2022-11-17T10:52:16.826Z,12.60
2022-11-17T10:54:49.924Z,12.60
2022-11-17T10:57:24.187Z,12.60
2022-11-17T10:59:58.724Z,12.70
2022-11-17T11:02:37.012Z,12.60
2022-11-17T11:05:18.111Z,12.60
2022-11-17T11:07:51.898Z,12.50
2022-11-17T11:10:30.930Z,12.50
2022-11-17T11:13:09.306Z,12.60
2022-11-17T11:15:40.252Z,12.70
2022-11-17T11:18:16.219Z,12.70
2022-11-17T11:20:54.119Z,12.80
2022-11-17T11:23:37.224Z,12.70
2022-11-17T11:26:21.863Z,12.70
2022-11-17T11:29:06.394Z,13.00
2022-11-17T11:31:52.199Z,12.80
2022-11-17T11:34:51.522Z,12.80
2022-11-17T11:37:23.644Z,12.90
2022-11-17T11:40:06.128Z,13.00
2022-11-17T11:42:50.160Z,13.10
2022-11-17T11:45:37.604Z,13.00
2022-11-17T11:48:25.620Z,12.90
2022-11-17T11:51:01.550Z,13.00
2022-11-17T11:53:40.762Z,13.00
2022-11-17T11:56:18.399Z,13.00
2022-11-17T11:58:58.261Z,13.10
2022-11-17T12:01:31.266Z,13.00
2022-11-17T12:04:16.121Z,13.00
2022-11-17T12:06:56.832Z,13.00
2022-11-17T12:09:46.175Z,13.10
2022-11-17T12:12:19.096Z,13.00
2022-11-17T12:15:28.734Z,13.00
2022-11-17T12:18:05.238Z,12.60
2022-11-17T12:21:01.686Z,13.10
2022-11-17T12:24:08.031Z,13.10
2022-11-17T12:26:39.261Z,13.10
2022-11-17T12:29:33.466Z,13.10
2022-11-17T12:32:05.426Z,13.10
2022-11-17T12:34:38.176Z,13.10
2022-11-17T12:37:26.507Z,13.10
2022-11-17T12:40:07.916Z,13.20
2022-11-17T12:42:40.110Z,13.10
2022-11-17T12:45:15.206Z,13.10
2022-11-17T12:47:59.543Z,13.20
2022-11-17T12:50:53.981Z,13.20
2022-11-17T12:53:57.667Z,13.50
2022-11-17T12:56:59.759Z,13.50
2022-11-17T13:00:07.403Z,13.20
2022-11-17T13:02:50.393Z,13.30
2022-11-17T13:05:28.948Z,13.30
2022-11-17T13:08:25.145Z,13.20
2022-11-17T13:11:08.244Z,13.20
2022-11-17T13:13:47.012Z,13.00
2022-11-17T13:16:22.146Z,12.90
2022-11-17T13:18:53.940Z,12.90
2022-11-17T13:21:32.773Z,12.90
2022-11-17T13:24:03.545Z,12.90
2022-11-17T13:26:38.036Z,12.80
2022-11-17T13:29:15.288Z,12.80
2022-11-17T13:31:46.928Z,12.80
2022-11-17T13:34:21.190Z,12.80
2022-11-17T13:36:56.314Z,12.90
2022-11-17T13:39:28.161Z,12.80
2022-11-17T13:42:01.343Z,12.80
2022-11-17T13:44:35.969Z,12.80
2022-11-17T13:47:21.378Z,12.80
2022-11-17T13:49:52.211Z,12.80
2022-11-17T13:52:41.943Z,12.70
2022-11-17T13:55:20.693Z,12.70
2022-11-17T13:57:57.714Z,12.70
2022-11-17T14:00:33.629Z,12.70
2022-11-17T14:03:08.409Z,12.60
2022-11-17T14:05:39.177Z,12.60
2022-11-17T14:08:16.295Z,12.60
2022-11-17T14:10:47.146Z,12.60
2022-11-17T14:13:27.861Z,12.60
2022-11-17T14:16:02.936Z,12.60
2022-11-17T14:18:37.233Z,12.60
2022-11-17T14:21:10.538Z,12.50
2022-11-17T14:23:52.458Z,12.50
2022-11-17T14:26:25.157Z,12.50
2022-11-17T14:29:02.054Z,12.50
2022-11-17T14:31:35.714Z,12.50
2022-11-17T14:34:06.570Z,12.60
2022-11-17T14:36:41.563Z,12.50
2022-11-17T14:39:20.419Z,12.50
2022-11-17T14:41:53.198Z,12.60
2022-11-17T14:44:26.979Z,12.60
2022-11-17T14:47:00.379Z,12.50
2022-11-17T14:49:31.499Z,12.50
2022-11-17T14:52:02.877Z,12.50
2022-11-17T14:54:33.792Z,12.50
2022-11-17T14:57:05.891Z,12.50
2022-11-17T14:59:39.615Z,12.50
2022-11-17T15:02:15.153Z,12.50
2022-11-17T15:04:51.249Z,12.50
2022-11-17T15:07:22.860Z,12.50
2022-11-17T15:09:53.687Z,12.50
2022-11-17T15:12:24.748Z,12.50
2022-11-17T15:14:57.503Z,12.00
2022-11-17T15:17:31.416Z,12.50
2022-11-17T15:20:02.525Z,12.50
2022-11-17T15:22:37.701Z,12.50
2022-11-17T15:25:10.075Z,12.30
2022-11-17T15:27:43.493Z,12.30
2022-11-17T15:30:17.806Z,12.30
2022-11-17T15:32:51.607Z,12.20
2022-11-17T15:35:22.438Z,12.40
2022-11-17T15:37:54.369Z,12.20
2022-11-17T15:40:25.091Z,12.10
2022-11-17T15:42:56.132Z,12.10
2022-11-17T15:45:30.719Z,12.10
2022-11-17T15:48:04.082Z,12.10
2022-11-17T15:50:34.895Z,12.10
2022-11-17T15:53:05.867Z,12.10
2022-11-17T15:55:37.321Z,12.10
2022-11-17T15:58:08.110Z,12.20
2022-11-17T16:00:40.272Z,12.20
2022-11-17T16:03:13.711Z,12.20
2022-11-17T16:05:44.527Z,12.20
2022-11-17T16:08:17.797Z,12.20
2022-11-17T16:10:48.586Z,12.20
2022-11-17T16:13:19.447Z,11.90
2022-11-17T16:15:51.274Z,12.10
2022-11-17T16:18:26.158Z,12.10
2022-11-17T16:21:02.989Z,12.20
2022-11-17T16:23:40.999Z,12.20
2022-11-17T16:26:15.431Z,12.10
2022-11-17T16:28:46.886Z,12.00
2022-11-17T16:31:20.674Z,12.10
2022-11-17T16:33:58.419Z,12.10
2022-11-17T16:36:36.222Z,12.00
2022-11-17T16:39:15.362Z,12.20
2022-11-17T16:41:50.151Z,12.10
2022-11-17T16:44:21.505Z,12.10
2022-11-17T16:46:52.769Z,11.70
2022-11-17T16:49:26.282Z,12.10
2022-11-17T16:52:00.152Z,12.00
2022-11-17T16:54:31.160Z,12.00
2022-11-17T16:57:03.162Z,11.90
2022-11-17T16:59:37.253Z,12.30
2022-11-17T17:02:09.375Z,11.90
2022-11-17T17:04:44.262Z,11.80
2022-11-17T17:07:15.361Z,11.80
2022-11-17T17:09:46.413Z,11.80
2022-11-17T17:12:17.280Z,11.80
2022-11-17T17:14:48.075Z,11.70
2022-11-17T17:17:19.289Z,11.60
2022-11-17T17:19:52.614Z,11.50
2022-11-17T17:22:26.459Z,11.40
2022-11-17T17:25:15.036Z,11.40
2022-11-17T17:27:48.322Z,11.40
2022-11-17T17:30:19.334Z,11.70
2022-11-17T17:32:50.207Z,11.50
2022-11-17T17:35:23.594Z,11.40
2022-11-17T17:37:54.686Z,11.40
2022-11-17T17:40:26.167Z,11.30
2022-11-17T17:42:59.857Z,11.30
2022-11-17T17:45:30.685Z,11.30
2022-11-17T17:48:01.843Z,11.30
2022-11-17T17:50:36.529Z,11.30
2022-11-17T17:53:07.817Z,11.30
2022-11-17T17:55:38.814Z,11.40
2022-11-17T17:58:10.308Z,11.40
2022-11-17T18:00:43.889Z,11.40
2022-11-17T18:03:14.701Z,11.40
2022-11-17T18:05:48.747Z,11.40
2022-11-17T18:08:20.801Z,11.50
2022-11-17T18:10:53.275Z,11.40
2022-11-17T18:13:24.048Z,11.60
2022-11-17T18:15:55.121Z,11.40
2022-11-17T18:18:26.902Z,11.40
2022-11-17T18:21:11.568Z,11.40
2022-11-17T18:23:44.228Z,11.50
2022-11-17T18:26:18.332Z,11.50
2022-11-17T18:28:57.537Z,11.50
2022-11-17T18:31:33.421Z,11.40
2022-11-17T18:34:06.057Z,11.40
2022-11-17T18:36:39.553Z,11.30
2022-11-17T18:39:10.611Z,11.30
2022-11-17T18:41:43.824Z,11.30
2022-11-17T18:44:16.866Z,11.20
2022-11-17T18:46:48.119Z,11.10
2022-11-17T18:49:19.584Z,11.10
2022-11-17T18:51:56.547Z,11.10
2022-11-17T18:54:27.331Z,11.00
2022-11-17T18:57:00.041Z,11.00
2022-11-17T18:59:30.928Z,10.90
2022-11-17T19:02:04.303Z,11.00
2022-11-17T19:04:36.578Z,10.90
2022-11-17T19:07:09.973Z,11.30
2022-11-17T19:09:43.909Z,10.80
2022-11-17T19:12:15.178Z,10.80
2022-11-17T19:14:49.154Z,10.80
2022-11-17T19:17:22.612Z,10.80
2022-11-17T19:19:53.899Z,10.70
2022-11-17T19:22:27.248Z,10.70
2022-11-17T19:24:59.175Z,10.80
2022-11-17T19:27:30.026Z,10.70
2022-11-17T19:30:01.006Z,10.70
2022-11-17T19:32:31.965Z,10.70
2022-11-17T19:35:13.618Z,10.70
2022-11-17T19:37:51.089Z,10.70
2022-11-17T19:40:24.237Z,10.70
2022-11-17T19:42:55.185Z,10.70
2022-11-17T19:45:26.244Z,10.60
2022-11-17T19:47:57.328Z,10.70
2022-11-17T19:50:28.610Z,10.70
2022-11-17T19:53:05.079Z,10.70
2022-11-17T19:55:40.049Z,10.70
2022-11-17T19:58:11.858Z,10.70
2022-11-17T20:00:48.617Z,10.70
2022-11-17T20:03:19.758Z,10.70
2022-11-17T20:05:53.121Z,11.00
2022-11-17T20:08:26.418Z,10.20
2022-11-17T20:11:05.440Z,10.70
2022-11-17T20:13:36.857Z,10.70
2022-11-17T20:16:12.300Z,10.60
2022-11-17T20:18:47.895Z,10.60
2022-11-17T20:21:18.640Z,10.60
2022-11-17T20:23:52.354Z,10.60
2022-11-17T20:26:28.125Z,10.70
2022-11-17T20:29:02.842Z,10.70
2022-11-17T20:31:35.334Z,10.60
2022-11-17T20:34:07.744Z,10.60
2022-11-17T20:36:38.606Z,10.60
2022-11-17T20:39:14.194Z,10.70
2022-11-17T20:41:45.227Z,10.70
2022-11-17T20:44:26.347Z,10.70
2022-11-17T20:46:58.750Z,11.00
2022-11-17T20:49:34.192Z,10.70
2022-11-17T20:52:13.054Z,10.70
2022-11-17T20:54:47.530Z,10.70
2022-11-17T20:57:21.728Z,10.70
2022-11-17T20:59:52.590Z,11.00
2022-11-17T21:02:23.553Z,11.10
2022-11-17T21:04:54.493Z,10.70
2022-11-17T21:07:25.605Z,10.70
2022-11-17T21:09:59.821Z,10.70
2022-11-17T21:12:30.672Z,10.70
2022-11-17T21:15:01.546Z,10.50
2022-11-17T21:17:45.400Z,10.50
2022-11-17T21:20:19.238Z,10.70
2022-11-17T21:22:50.116Z,10.70
2022-11-17T21:25:23.713Z,10.60
2022-11-17T21:27:54.547Z,10.60
2022-11-17T21:30:25.619Z,10.60
2022-11-17T21:32:56.851Z,10.90
2022-11-17T21:35:27.772Z,10.60
2022-11-17T21:37:58.622Z,10.60
2022-11-17T21:40:32.115Z,10.70
2022-11-17T21:43:02.897Z,10.60
2022-11-17T21:45:35.657Z,10.70
2022-11-17T21:48:07.110Z,10.60
2022-11-17T21:50:40.450Z,10.60
2022-11-17T21:53:13.645Z,10.60
2022-11-17T21:55:51.850Z,10.60
2022-11-17T21:58:22.696Z,10.60
2022-11-17T22:00:57.290Z,10.60
2022-11-17T22:03:31.824Z,10.60
2022-11-17T22:06:14.532Z,10.60
2022-11-17T22:08:56.352Z,10.60
2022-11-17T22:11:40.771Z,10.50
2022-11-17T22:14:14.027Z,10.50
2022-11-17T22:16:46.643Z,10.40
2022-11-17T22:19:20.653Z,10.40
2022-11-17T22:21:53.574Z,10.40
2022-11-17T22:24:24.961Z,10.40
2022-11-17T22:26:58.319Z,10.40
2022-11-17T22:29:29.603Z,10.40
2022-11-17T22:32:01.931Z,10.40
2022-11-17T22:34:32.731Z,10.40
2022-11-17T22:37:03.562Z,10.40
2022-11-17T22:39:43.674Z,10.40
2022-11-17T22:42:18.970Z,10.70
2022-11-17T22:44:49.785Z,10.90
2022-11-17T22:47:20.573Z,10.80
2022-11-17T22:49:56.243Z,10.50
2022-11-17T22:52:30.468Z,10.60
2022-11-17T22:55:03.036Z,10.40
2022-11-17T22:57:36.386Z,10.30
2022-11-17T23:00:11.606Z,10.30
2022-11-17T23:02:42.556Z,10.20
2022-11-17T23:05:13.343Z,10.20
2022-11-17T23:07:44.263Z,10.20
2022-11-17T23:10:16.124Z,10.10
2022-11-17T23:12:49.798Z,10.10
2022-11-17T23:15:20.661Z,10.00
2022-11-17T23:17:59.042Z,10.00
2022-11-17T23:20:33.151Z,9.90
2022-11-17T23:23:10.544Z,9.80
2022-11-17T23:25:41.591Z,9.80
2022-11-17T23:28:14.984Z,9.70
2022-11-17T23:30:47.754Z,9.70
2022-11-17T23:33:18.963Z,9.70
2022-11-17T23:35:50.000Z,9.60
2022-11-17T23:38:21.723Z,9.60
2022-11-17T23:40:53.127Z,9.60
2022-11-17T23:43:27.221Z,9.60
2022-11-17T23:45:59.926Z,9.60
2022-11-17T23:48:33.308Z,9.60
2022-11-17T23:51:08.481Z,9.60
2022-11-17T23:53:40.902Z,9.70
2022-11-17T23:56:13.293Z,9.10
2022-11-17T23:58:46.845Z,9.50
